createdAt,value
2022-11-24T00:00:58.266Z,18.27
2022-11-24T00:02:11.068Z,18.26
2022-11-24T00:03:15.030Z,18.27
2022-11-24T00:04:27.705Z,18.27
2022-11-24T00:05:41.783Z,18.26
2022-11-24T00:06:44.498Z,18.26
2022-11-24T00:07:57.798Z,18.27
2022-11-24T00:09:10.407Z,18.27
2022-11-24T00:10:23.787Z,18.29
2022-11-24T00:11:26.539Z,18.26
2022-11-24T00:12:40.323Z,18.26
2022-11-24T00:13:53.008Z,18.27
2022-11-24T00:14:56.415Z,18.26
2022-11-24T00:16:29.280Z,18.26
2022-11-24T00:17:23.288Z,18.26
2022-11-24T00:18:25.969Z,18.26
2022-11-24T00:19:40.475Z,18.27
2022-11-24T00:20:53.355Z,18.24
2022-11-24T00:21:56.822Z,18.29
2022-11-24T00:23:09.809Z,18.26
2022-11-24T00:24:23.302Z,18.24
2022-11-24T00:25:25.995Z,18.26
2022-11-24T00:26:39.291Z,18.23
2022-11-24T00:27:51.932Z,18.23
2022-11-24T00:28:55.290Z,18.22
2022-11-24T00:30:07.914Z,18.22
2022-11-24T00:31:21.373Z,18.2
2022-11-24T00:32:24.144Z,18.22
2022-11-24T00:33:37.783Z,18.19
2022-11-24T00:34:50.462Z,18.19
2022-11-24T00:36:03.831Z,18.17
2022-11-24T00:37:06.510Z,18.17
2022-11-24T00:38:19.816Z,18.16
2022-11-24T00:39:32.522Z,18.17
2022-11-24T00:40:36.317Z,18.19
2022-11-24T00:41:49.023Z,18.16
2022-11-24T00:43:02.443Z,18.16
2022-11-24T00:44:05.126Z,18.14
2022-11-24T00:45:18.812Z,18.16
2022-11-24T00:46:31.623Z,18.16
2022-11-24T00:47:35.790Z,18.14
2022-11-24T00:48:58.404Z,18.14
2022-11-24T00:50:01.821Z,18.13
2022-11-24T00:51:04.498Z,18.14
2022-11-24T00:52:17.860Z,18.16
2022-11-24T00:53:30.518Z,18.14
2022-11-24T00:54:34.236Z,18.13
2022-11-24T00:55:47.440Z,18.13
2022-11-24T00:57:00.784Z,18.13
2022-11-24T00:58:03.506Z,18.12
2022-11-24T00:59:17.308Z,18.12
2022-11-24T01:00:29.944Z,18.12
2022-11-24T01:01:33.376Z,18.12
2022-11-24T01:02:46.134Z,18.1
2022-11-24T01:03:59.822Z,18.12
2022-11-24T01:05:02.606Z,18.12
2022-11-24T01:06:16.298Z,18.12
2022-11-24T01:07:29.031Z,18.12
2022-11-24T01:08:43.841Z,18.09
2022-11-24T01:09:46.569Z,18.1
2022-11-24T01:11:00.301Z,18.07
2022-11-24T01:12:03.164Z,18.09
2022-11-24T01:13:16.820Z,18.09
2022-11-24T01:14:29.485Z,18.09
2022-11-24T01:15:42.887Z,18.09
2022-11-24T01:16:45.642Z,18.12
2022-11-24T01:17:59.296Z,18.07
2022-11-24T01:19:11.801Z,18.07
2022-11-24T01:20:15.293Z,18.07
2022-11-24T01:21:27.714Z,18.09
2022-11-24T01:22:41.302Z,18.09
2022-11-24T01:23:44.003Z,18.07
2022-11-24T01:24:57.404Z,18.07
2022-11-24T01:26:10.313Z,18.06
2022-11-24T01:27:13.996Z,18.06
2022-11-24T01:28:27.114Z,18.06
2022-11-24T01:29:40.841Z,18.07
2022-11-24T01:30:44.273Z,18.03
2022-11-24T01:31:57.823Z,18.06
2022-11-24T01:33:10.970Z,18.04
2022-11-24T01:34:25.819Z,18.03
2022-11-24T01:35:28.502Z,18.04
2022-11-24T01:36:41.913Z,18.06
2022-11-24T01:37:44.995Z,18.04
2022-11-24T01:38:58.715Z,18.06
2022-11-24T01:40:11.397Z,18.07
2022-11-24T01:41:14.910Z,18.07
2022-11-24T01:42:27.555Z,18.04
2022-11-24T01:43:40.801Z,18.04
2022-11-24T01:44:43.524Z,18.07
2022-11-24T01:45:56.848Z,18.04
2022-11-24T01:47:09.730Z,18.06
2022-11-24T01:48:27.153Z,18.06
2022-11-24T01:49:30.924Z,18.04
2022-11-24T01:50:34.802Z,18.03
2022-11-24T01:51:47.463Z,18.03
2022-11-24T01:53:03.359Z,18.02
2022-11-24T01:54:06.104Z,18.0
2022-11-24T01:55:19.796Z,18.02
2022-11-24T01:56:32.478Z,18.02
2022-11-24T01:57:36.347Z,18.03
2022-11-24T01:58:48.991Z,18.02
2022-11-24T02:00:02.299Z,18.02
2022-11-24T02:01:05.071Z,18.03
2022-11-24T02:02:18.908Z,17.99
2022-11-24T02:03:31.545Z,18.02
2022-11-24T02:04:35.498Z,18.0
2022-11-24T02:05:48.487Z,18.0
2022-11-24T02:07:02.337Z,18.0
2022-11-24T02:08:05.065Z,18.0
2022-11-24T02:09:18.320Z,18.0
2022-11-24T02:10:31.008Z,17.99
2022-11-24T02:11:34.821Z,17.99
2022-11-24T02:12:47.482Z,17.99
2022-11-24T02:14:00.807Z,18.0
2022-11-24T02:15:05.217Z,17.99
2022-11-24T02:16:18.835Z,18.0
2022-11-24T02:17:31.556Z,17.99
2022-11-24T02:18:36.304Z,18.0
2022-11-24T02:19:48.931Z,17.99
2022-11-24T02:21:02.328Z,17.96
2022-11-24T02:22:05.005Z,17.96
2022-11-24T02:23:18.332Z,17.96
2022-11-24T02:24:32.389Z,17.96
2022-11-24T02:25:48.856Z,17.97
2022-11-24T02:26:51.575Z,17.96
2022-11-24T02:27:55.307Z,17.96
2022-11-24T02:29:07.954Z,17.97
2022-11-24T02:30:21.316Z,17.96
2022-11-24T02:31:24.182Z,17.97
2022-11-24T02:32:37.836Z,17.97
2022-11-24T02:33:51.433Z,17.97
2022-11-24T02:34:55.830Z,17.96
2022-11-24T02:36:08.488Z,17.96
2022-11-24T02:37:21.810Z,17.97
2022-11-24T02:38:31.068Z,17.96
2022-11-24T02:39:34.447Z,17.97
2022-11-24T02:40:47.174Z,17.97
2022-11-24T02:42:00.857Z,17.96
2022-11-24T02:43:13.503Z,17.94
2022-11-24T02:44:16.839Z,17.93
2022-11-24T02:45:29.700Z,17.94
2022-11-24T02:46:43.357Z,17.96
2022-11-24T02:47:46.294Z,17.94
2022-11-24T02:49:19.848Z,17.94
2022-11-24T02:50:12.784Z,17.96
2022-11-24T02:51:15.604Z,17.94
2022-11-24T02:52:28.820Z,17.96
2022-11-24T02:53:41.471Z,17.94
2022-11-24T02:54:44.820Z,17.96
2022-11-24T02:55:57.468Z,17.94
2022-11-24T02:57:10.931Z,17.97
2022-11-24T02:58:23.741Z,17.96
2022-11-24T02:59:27.351Z,17.94
2022-11-24T03:00:40.033Z,17.96
2022-11-24T03:01:53.421Z,17.97
2022-11-24T03:02:56.416Z,17.94
2022-11-24T03:04:09.850Z,17.96
2022-11-24T03:05:22.506Z,17.94
2022-11-24T03:06:25.844Z,17.94
2022-11-24T03:07:38.687Z,17.93
2022-11-24T03:08:52.357Z,17.94
2022-11-24T03:09:55.065Z,17.96
2022-11-24T03:11:08.448Z,17.94
2022-11-24T03:12:21.099Z,17.92
2022-11-24T03:13:34.812Z,17.92
2022-11-24T03:14:37.661Z,17.93
2022-11-24T03:15:51.439Z,17.94
2022-11-24T03:17:04.245Z,17.93
2022-11-24T03:18:07.824Z,17.96
2022-11-24T03:19:20.490Z,17.94
2022-11-24T03:20:33.838Z,17.93
2022-11-24T03:21:36.416Z,17.93
2022-11-24T03:22:49.864Z,17.92
2022-11-24T03:24:02.300Z,17.94
2022-11-24T03:25:05.861Z,17.9
2022-11-24T03:26:18.283Z,17.93
2022-11-24T03:27:31.395Z,17.93
2022-11-24T03:28:43.852Z,17.93
2022-11-24T03:29:47.382Z,17.9
2022-11-24T03:31:00.237Z,17.92
2022-11-24T03:32:13.831Z,17.93
2022-11-24T03:33:16.690Z,17.94
2022-11-24T03:34:30.449Z,17.93
2022-11-24T03:35:43.082Z,17.92
2022-11-24T03:36:46.840Z,17.92
2022-11-24T03:37:59.627Z,17.93
2022-11-24T03:39:33.427Z,17.92
2022-11-24T03:40:16.255Z,17.92
2022-11-24T03:41:28.905Z,17.93
2022-11-24T03:42:42.453Z,17.92
2022-11-24T03:44:04.988Z,17.93
2022-11-24T03:45:04.275Z,17.94
2022-11-24T03:46:09.806Z,17.96
2022-11-24T03:47:23.332Z,17.96
2022-11-24T03:49:05.784Z,17.97
2022-11-24T03:51:26.881Z,17.99
2022-11-24T03:52:02.674Z,18.0
2022-11-24T03:53:09.322Z,18.03
2022-11-24T03:54:22.976Z,18.06
2022-11-24T03:55:25.675Z,18.06
2022-11-24T03:56:38.898Z,18.06
2022-11-24T03:57:51.530Z,18.04
2022-11-24T03:58:54.929Z,18.06
2022-11-24T04:00:07.540Z,18.06
2022-11-24T04:01:20.946Z,18.04
2022-11-24T04:02:23.770Z,18.03
2022-11-24T04:03:37.438Z,17.99
2022-11-24T04:04:50.104Z,18.0
2022-11-24T04:05:53.467Z,17.99
2022-11-24T04:07:36.175Z,17.97
2022-11-24T04:08:19.947Z,17.94
2022-11-24T04:09:22.622Z,17.96
2022-11-24T04:10:36.098Z,17.99
2022-11-24T04:11:48.765Z,17.97
2022-11-24T04:12:52.409Z,17.97
2022-11-24T04:14:07.895Z,17.97
2022-11-24T04:15:15.444Z,17.99
2022-11-24T04:16:28.041Z,17.97
2022-11-24T04:17:41.424Z,17.93
2022-11-24T04:18:44.003Z,17.94
2022-11-24T04:19:57.580Z,17.93
2022-11-24T04:21:10.325Z,17.93
2022-11-24T04:22:13.926Z,17.92
2022-11-24T04:23:26.655Z,17.93
2022-11-24T04:24:39.925Z,17.92
2022-11-24T04:25:42.671Z,17.9
2022-11-24T04:26:56.473Z,17.9
2022-11-24T04:28:09.292Z,17.92
2022-11-24T04:29:12.930Z,17.9
2022-11-24T04:30:25.611Z,17.89
2022-11-24T04:31:39.026Z,17.89
2022-11-24T04:32:41.974Z,17.9
2022-11-24T04:33:55.615Z,17.87
2022-11-24T04:35:08.302Z,17.87
2022-11-24T04:36:41.944Z,17.87
2022-11-24T04:37:24.806Z,17.86
2022-11-24T04:39:19.986Z,17.87
2022-11-24T04:39:49.707Z,17.87
2022-11-24T04:40:52.718Z,17.9
2022-11-24T04:42:25.930Z,17.92
2022-11-24T04:43:18.672Z,17.94
2022-11-24T04:44:32.608Z,17.93
2022-11-24T04:45:35.621Z,17.96
2022-11-24T04:46:49.030Z,17.93
2022-11-24T04:47:51.795Z,17.97
2022-11-24T04:49:05.426Z,17.96
2022-11-24T04:50:18.134Z,17.94
2022-11-24T04:51:31.462Z,17.93
2022-11-24T04:52:34.190Z,17.93
2022-11-24T04:53:47.944Z,17.92
2022-11-24T04:55:00.612Z,17.97
2022-11-24T04:56:04.052Z,17.94
2022-11-24T04:57:16.771Z,17.93
2022-11-24T04:58:30.458Z,17.9
2022-11-24T04:59:33.178Z,17.9
2022-11-24T05:00:47.072Z,17.9
2022-11-24T05:01:59.781Z,17.89
2022-11-24T05:03:03.919Z,17.87
2022-11-24T05:04:16.605Z,17.85
2022-11-24T05:05:29.941Z,17.86
2022-11-24T05:06:32.643Z,17.87
2022-11-24T05:07:45.979Z,17.86
2022-11-24T05:08:58.755Z,17.85
2022-11-24T05:10:12.529Z,17.85
2022-11-24T05:11:15.250Z,17.83
2022-11-24T05:12:29.923Z,17.83
2022-11-24T05:13:32.637Z,17.83
2022-11-24T05:14:45.962Z,17.83
2022-11-24T05:15:58.693Z,17.82
2022-11-24T05:17:12.412Z,17.83
2022-11-24T05:18:15.142Z,17.85
2022-11-24T05:19:31.210Z,17.82
2022-11-24T05:20:35.230Z,17.85
2022-11-24T05:21:48.964Z,17.83
2022-11-24T05:23:01.685Z,17.85
2022-11-24T05:24:05.480Z,17.83
2022-11-24T05:25:18.173Z,17.85
2022-11-24T05:26:31.470Z,17.89
2022-11-24T05:27:34.211Z,17.87
2022-11-24T05:28:47.948Z,17.85
2022-11-24T05:30:00.588Z,17.85
2022-11-24T05:31:04.065Z,17.83
2022-11-24T05:32:16.805Z,17.83
2022-11-24T05:33:30.461Z,17.83
2022-11-24T05:34:33.576Z,17.82
2022-11-24T05:35:46.950Z,17.85
2022-11-24T05:36:59.623Z,17.86
2022-11-24T05:38:02.989Z,17.85
2022-11-24T05:39:15.718Z,17.85
2022-11-24T05:40:29.465Z,17.86
2022-11-24T05:41:32.435Z,17.86
2022-11-24T05:42:47.962Z,17.86
2022-11-24T05:43:51.276Z,17.86
2022-11-24T05:45:05.028Z,17.86
2022-11-24T05:46:17.787Z,17.86
2022-11-24T05:47:31.476Z,17.85
2022-11-24T05:48:44.174Z,17.85
2022-11-24T05:49:47.946Z,17.87
2022-11-24T05:50:50.724Z,17.86
2022-11-24T05:52:03.972Z,17.86
2022-11-24T05:53:16.655Z,17.89
2022-11-24T05:54:30.437Z,17.87
2022-11-24T05:55:33.179Z,17.89
2022-11-24T05:56:46.932Z,17.87
2022-11-24T05:57:59.610Z,17.87
2022-11-24T05:59:08.211Z,17.87
2022-11-24T06:00:12.547Z,17.87
2022-11-24T06:01:26.074Z,17.89
2022-11-24T06:02:38.854Z,17.89
2022-11-24T06:03:42.963Z,17.87
2022-11-24T06:04:55.619Z,17.86
2022-11-24T06:06:08.941Z,17.89
2022-11-24T06:07:11.723Z,17.89
2022-11-24T06:08:30.809Z,17.89
2022-11-24T06:09:34.041Z,17.89
2022-11-24T06:10:47.442Z,17.87
2022-11-24T06:11:50.173Z,17.92
2022-11-24T06:13:03.754Z,17.9
2022-11-24T06:14:16.560Z,17.9
2022-11-24T06:15:30.016Z,17.89
2022-11-24T06:16:32.903Z,17.89
2022-11-24T06:17:47.491Z,17.89
2022-11-24T06:18:50.203Z,17.85
2022-11-24T06:20:03.495Z,17.83
2022-11-24T06:21:16.181Z,17.85
2022-11-24T06:22:29.494Z,17.87
2022-11-24T06:23:32.374Z,17.96
2022-11-24T06:24:48.588Z,18.03
2022-11-24T06:25:51.720Z,18.1
2022-11-24T06:27:04.951Z,18.17
2022-11-24T06:28:17.569Z,18.22
2022-11-24T06:29:21.006Z,18.27
2022-11-24T06:30:33.758Z,18.3
2022-11-24T06:31:47.471Z,18.31
2022-11-24T06:32:50.261Z,18.31
2022-11-24T06:34:03.958Z,18.29
2022-11-24T06:35:16.586Z,18.3
2022-11-24T06:36:20.473Z,18.24
2022-11-24T06:37:33.519Z,18.22
2022-11-24T06:38:46.947Z,18.2
2022-11-24T06:39:49.689Z,18.2
2022-11-24T06:41:02.960Z,18.14
2022-11-24T06:42:15.650Z,18.17
2022-11-24T06:43:28.997Z,18.14
2022-11-24T06:44:32.319Z,18.13
2022-11-24T06:45:46.516Z,18.12
2022-11-24T06:46:49.325Z,18.12
2022-11-24T06:48:03.972Z,18.1
2022-11-24T06:49:26.614Z,18.1
2022-11-24T06:50:19.960Z,18.06
2022-11-24T06:51:32.769Z,18.1
2022-11-24T06:52:46.483Z,18.1
2022-11-24T06:53:59.099Z,18.09
2022-11-24T06:55:02.453Z,18.09
2022-11-24T06:56:16.596Z,18.07
2022-11-24T06:57:20.492Z,18.09
2022-11-24T06:58:33.143Z,18.1
2022-11-24T06:59:46.463Z,18.07
2022-11-24T07:00:49.164Z,18.09
2022-11-24T07:02:02.464Z,18.09
2022-11-24T07:03:15.272Z,18.1
2022-11-24T07:04:29.052Z,18.09
2022-11-24T07:05:31.837Z,18.09
2022-11-24T07:06:45.479Z,18.1
2022-11-24T07:07:58.301Z,18.09
2022-11-24T07:09:01.994Z,18.09
2022-11-24T07:10:14.632Z,18.1
2022-11-24T07:11:27.985Z,18.12
2022-11-24T07:12:30.670Z,18.09
2022-11-24T07:13:43.967Z,18.12
2022-11-24T07:14:56.658Z,18.09
2022-11-24T07:16:00.043Z,18.09
2022-11-24T07:17:12.755Z,18.13
2022-11-24T07:18:26.472Z,18.09
2022-11-24T07:19:29.187Z,18.09
2022-11-24T07:20:42.476Z,18.1
2022-11-24T07:21:55.323Z,18.12
2022-11-24T07:23:08.959Z,18.07
2022-11-24T07:24:11.687Z,18.1
2022-11-24T07:25:25.001Z,18.14
2022-11-24T07:26:37.712Z,18.13
2022-11-24T07:27:41.686Z,18.09
2022-11-24T07:28:54.410Z,18.09
2022-11-24T07:30:08.016Z,18.12
2022-11-24T07:31:20.806Z,18.12
2022-11-24T07:32:24.488Z,18.09
2022-11-24T07:33:37.159Z,18.1
2022-11-24T07:34:40.458Z,18.12
2022-11-24T07:35:53.069Z,18.14
2022-11-24T07:37:06.482Z,18.12
2022-11-24T07:38:09.166Z,18.13
2022-11-24T07:39:22.471Z,18.12
2022-11-24T07:40:35.146Z,18.1
2022-11-24T07:41:48.509Z,18.12
2022-11-24T07:42:51.229Z,18.13
2022-11-24T07:44:04.648Z,18.13
2022-11-24T07:45:17.355Z,18.1
2022-11-24T07:46:21.082Z,18.12
2022-11-24T07:47:33.837Z,18.16
2022-11-24T07:48:47.480Z,18.23
2022-11-24T07:49:50.078Z,18.33
2022-11-24T07:51:03.464Z,18.47
2022-11-24T07:52:15.977Z,18.62
2022-11-24T07:53:19.485Z,18.69
2022-11-24T07:54:32.256Z,18.85
2022-11-24T07:55:45.504Z,18.95
2022-11-24T07:56:48.020Z,19.08
2022-11-24T07:58:01.482Z,19.2
2022-11-24T07:59:13.911Z,19.29
2022-11-24T08:00:27.517Z,19.36
2022-11-24T08:01:30.091Z,19.46
2022-11-24T08:02:43.579Z,19.55
2022-11-24T08:03:56.133Z,19.62
2022-11-24T08:04:59.493Z,19.68
2022-11-24T08:06:28.665Z,19.77
2022-11-24T08:07:26.040Z,19.83
2022-11-24T08:08:28.608Z,19.9
2022-11-24T08:09:41.988Z,19.98
2022-11-24T08:10:55.416Z,20.0
2022-11-24T08:11:58.524Z,20.03
2022-11-24T08:13:10.903Z,20.11
2022-11-24T08:14:24.036Z,20.14
2022-11-24T08:15:26.468Z,20.18
2022-11-24T08:16:39.528Z,20.21
2022-11-24T08:17:51.975Z,20.24
2022-11-24T08:19:04.991Z,20.27
2022-11-24T08:20:07.371Z,20.29
2022-11-24T08:21:20.514Z,20.31
2022-11-24T08:22:32.862Z,20.32
2022-11-24T08:23:35.973Z,20.37
2022-11-24T08:24:48.262Z,20.37
2022-11-24T08:26:01.525Z,20.44
2022-11-24T08:27:13.847Z,20.45
2022-11-24T08:28:16.980Z,20.45
2022-11-24T08:29:29.319Z,20.45
2022-11-24T08:30:42.503Z,20.49
2022-11-24T08:31:44.974Z,20.51
2022-11-24T08:32:57.988Z,20.54
2022-11-24T08:34:10.249Z,20.58
2022-11-24T08:35:23.525Z,20.58
2022-11-24T08:36:25.918Z,20.59
2022-11-24T08:37:39.541Z,20.61
2022-11-24T08:38:51.810Z,20.62
2022-11-24T08:39:55.018Z,20.64
2022-11-24T08:41:07.301Z,20.66
2022-11-24T08:42:20.515Z,20.68
2022-11-24T08:43:22.966Z,20.69
2022-11-24T08:44:36.551Z,20.69
2022-11-24T08:45:49.404Z,20.7
2022-11-24T08:46:52.529Z,20.72
2022-11-24T08:48:04.791Z,20.72
2022-11-24T08:49:18.026Z,20.75
2022-11-24T08:50:20.456Z,20.75
2022-11-24T08:51:33.516Z,20.73
2022-11-24T08:52:45.776Z,20.76
2022-11-24T08:53:59.030Z,20.78
2022-11-24T08:55:01.370Z,20.79
2022-11-24T08:56:15.018Z,20.78
2022-11-24T08:57:27.315Z,20.8
2022-11-24T08:58:30.542Z,20.82
2022-11-24T08:59:42.855Z,20.82
2022-11-24T09:00:56.028Z,20.85
2022-11-24T09:01:58.550Z,20.85
2022-11-24T09:03:11.535Z,20.85
2022-11-24T09:04:23.812Z,20.85
2022-11-24T09:05:51.701Z,20.88
2022-11-24T09:06:44.973Z,20.89
2022-11-24T09:07:47.473Z,20.89
2022-11-24T09:09:00.503Z,20.9
2022-11-24T09:10:12.742Z,20.92
2022-11-24T09:11:26.022Z,20.96
2022-11-24T09:12:28.449Z,20.95
2022-11-24T09:13:41.530Z,20.99
2022-11-24T09:14:53.828Z,21.0
2022-11-24T09:15:57.037Z,21.01
2022-11-24T09:17:09.305Z,21.04
2022-11-24T09:18:25.230Z,21.07
2022-11-24T09:19:31.635Z,21.1
2022-11-24T09:20:45.031Z,21.1
2022-11-24T09:21:47.389Z,21.11
2022-11-24T09:23:00.537Z,21.13
2022-11-24T09:24:12.813Z,21.17
2022-11-24T09:25:16.085Z,21.19
2022-11-24T09:26:28.295Z,21.19
2022-11-24T09:27:41.554Z,21.2
2022-11-24T09:28:43.878Z,21.23
2022-11-24T09:29:57.017Z,21.21
2022-11-24T09:31:09.312Z,21.26
2022-11-24T09:32:12.566Z,21.24
2022-11-24T09:33:24.939Z,21.26
2022-11-24T09:34:38.018Z,21.26
2022-11-24T09:35:40.385Z,21.29
2022-11-24T09:36:53.532Z,21.27
2022-11-24T09:38:05.738Z,21.3
2022-11-24T09:39:18.539Z,21.29
2022-11-24T09:40:20.952Z,21.31
2022-11-24T09:41:34.095Z,21.31
2022-11-24T09:42:52.083Z,21.33
2022-11-24T09:43:56.545Z,21.33
2022-11-24T09:44:58.911Z,21.34
2022-11-24T09:46:12.092Z,21.37
2022-11-24T09:47:24.423Z,21.4
2022-11-24T09:48:37.530Z,21.39
2022-11-24T09:49:39.891Z,21.4
2022-11-24T09:50:53.028Z,21.41
2022-11-24T09:52:05.218Z,21.43
2022-11-24T09:53:08.499Z,21.43
2022-11-24T09:54:20.775Z,21.44
2022-11-24T09:55:37.037Z,21.43
2022-11-24T09:56:39.316Z,21.46
2022-11-24T09:57:53.042Z,21.47
2022-11-24T09:59:05.290Z,21.5
2022-11-24T10:00:08.548Z,21.53
2022-11-24T10:01:20.794Z,21.53
2022-11-24T10:02:34.090Z,21.53
2022-11-24T10:03:36.561Z,21.57
2022-11-24T10:04:49.583Z,21.54
2022-11-24T10:06:01.868Z,21.57
2022-11-24T10:07:05.095Z,21.57
2022-11-24T10:08:17.328Z,21.58
2022-11-24T10:09:30.518Z,21.58
2022-11-24T10:10:42.745Z,21.6
2022-11-24T10:11:46.039Z,21.61
2022-11-24T10:12:58.276Z,21.61
2022-11-24T10:14:11.546Z,21.62
2022-11-24T10:15:13.964Z,21.65
2022-11-24T10:16:27.043Z,21.64
2022-11-24T10:17:39.220Z,21.61
2022-11-24T10:18:42.522Z,21.61
2022-11-24T10:19:54.756Z,21.65
2022-11-24T10:21:07.551Z,21.64
2022-11-24T10:22:19.776Z,21.67
2022-11-24T10:23:23.038Z,21.65
2022-11-24T10:24:35.248Z,21.65
2022-11-24T10:25:48.060Z,21.65
2022-11-24T10:26:50.337Z,21.67
2022-11-24T10:28:03.564Z,21.67
2022-11-24T10:29:15.747Z,21.7
2022-11-24T10:30:29.150Z,21.72
2022-11-24T10:31:31.394Z,21.72
2022-11-24T10:32:44.553Z,21.77
2022-11-24T10:33:56.719Z,21.8
2022-11-24T10:35:00.351Z,21.84
2022-11-24T10:36:12.889Z,21.85
2022-11-24T10:37:26.079Z,21.91
2022-11-24T10:38:38.277Z,21.95
2022-11-24T10:39:41.538Z,21.99
2022-11-24T10:40:58.121Z,22.03
2022-11-24T10:42:01.514Z,22.09
2022-11-24T10:43:13.732Z,22.13
2022-11-24T10:44:28.030Z,22.21
2022-11-24T10:45:30.274Z,22.25
2022-11-24T10:46:44.639Z,22.29
2022-11-24T10:47:56.917Z,22.33
2022-11-24T10:49:00.061Z,22.38
2022-11-24T10:50:12.246Z,22.41
2022-11-24T10:51:25.057Z,22.46
2022-11-24T10:52:27.278Z,22.5
2022-11-24T10:53:40.046Z,22.53
2022-11-24T10:54:52.208Z,22.57
2022-11-24T10:56:05.066Z,22.62
2022-11-24T10:57:07.292Z,22.69
2022-11-24T10:58:20.027Z,22.72
2022-11-24T10:59:32.656Z,22.73
2022-11-24T11:00:36.057Z,22.77
2022-11-24T11:01:48.219Z,22.81
2022-11-24T11:03:01.081Z,22.81
2022-11-24T11:04:13.360Z,22.86
2022-11-24T11:05:16.556Z,22.83
2022-11-24T11:06:28.689Z,22.88
2022-11-24T11:07:41.649Z,22.88
2022-11-24T11:08:43.888Z,22.96
2022-11-24T11:09:56.569Z,22.96
2022-11-24T11:11:08.684Z,22.97
2022-11-24T11:12:42.703Z,23.0
2022-11-24T11:13:26.241Z,23.0
2022-11-24T11:14:38.348Z,23.04
2022-11-24T11:15:51.118Z,23.1
2022-11-24T11:16:53.472Z,23.13
2022-11-24T11:18:06.547Z,23.13
2022-11-24T11:19:47.270Z,23.15
2022-11-24T11:20:22.072Z,23.18
2022-11-24T11:21:34.772Z,23.23
2022-11-24T11:22:47.553Z,23.25
2022-11-24T11:23:49.804Z,23.28
2022-11-24T11:25:02.545Z,23.34
2022-11-24T11:26:14.598Z,23.35
2022-11-24T11:27:27.584Z,23.37
2022-11-24T11:28:29.739Z,23.41
2022-11-24T11:31:19.852Z,23.42
2022-11-24T11:34:25.009Z,23.49
2022-11-24T11:35:28.053Z,23.54
2022-11-24T11:36:40.108Z,23.56
2022-11-24T11:37:53.111Z,23.56
2022-11-24T11:39:05.181Z,23.58
2022-11-24T11:40:08.586Z,23.59
2022-11-24T11:41:20.622Z,23.59
2022-11-24T11:43:00.886Z,23.61
2022-11-24T11:43:34.865Z,23.61
2022-11-24T11:44:46.842Z,23.61
2022-11-24T11:45:59.752Z,23.64
2022-11-24T11:47:12.184Z,23.64
2022-11-24T11:48:15.078Z,23.64
2022-11-24T11:49:27.086Z,23.66
2022-11-24T11:51:06.691Z,23.68
2022-11-24T11:51:44.529Z,23.68
2022-11-24T11:52:56.707Z,23.69
2022-11-24T11:54:09.604Z,23.75
2022-11-24T11:55:11.816Z,23.72
2022-11-24T11:56:26.074Z,23.74
2022-11-24T11:57:38.506Z,23.75
2022-11-24T12:00:03.509Z,23.76
2022-11-24T12:01:05.610Z,23.81
2022-11-24T12:02:18.374Z,23.81
2022-11-24T12:03:20.739Z,23.83
2022-11-24T12:04:33.972Z,23.86
2022-11-24T12:05:46.231Z,23.85
2022-11-24T12:06:49.300Z,23.86
2022-11-24T12:09:28.351Z,23.86
2022-11-24T12:10:20.685Z,23.9
2022-11-24T12:11:33.455Z,23.89
2022-11-24T12:12:45.574Z,23.88
2022-11-24T12:13:48.418Z,23.9
2022-11-24T12:15:03.453Z,23.95
2022-11-24T12:16:09.024Z,23.92
2022-11-24T12:17:21.159Z,23.95
2022-11-24T12:18:56.665Z,23.98
2022-11-24T12:19:39.909Z,23.95
2022-11-24T12:20:51.977Z,23.96
2022-11-24T12:22:04.877Z,23.96
2022-11-24T12:23:06.983Z,23.98
2022-11-24T12:24:19.924Z,23.98
2022-11-24T12:25:32.057Z,24.03
2022-11-24T12:26:34.875Z,24.0
2022-11-24T12:27:46.890Z,24.02
2022-11-24T12:28:59.874Z,24.03
2022-11-24T12:30:11.994Z,24.05
2022-11-24T12:31:14.944Z,24.07
2022-11-24T12:32:27.049Z,24.07
2022-11-24T12:33:39.900Z,24.09
2022-11-24T12:34:42.092Z,24.1
2022-11-24T12:35:54.863Z,24.09
2022-11-24T12:37:06.909Z,24.13
2022-11-24T12:38:19.883Z,24.1
2022-11-24T12:39:21.986Z,24.11
2022-11-24T12:40:34.890Z,24.14
2022-11-24T12:41:46.898Z,24.14
2022-11-24T12:42:49.920Z,24.17
2022-11-24T12:44:01.947Z,24.17
2022-11-24T12:45:14.913Z,24.19
2022-11-24T12:46:27.117Z,24.19
2022-11-24T12:47:30.383Z,24.22
2022-11-24T12:48:42.395Z,24.23
2022-11-24T12:49:55.406Z,24.23
2022-11-24T12:50:57.632Z,24.23
2022-11-24T12:52:10.377Z,24.26
2022-11-24T12:53:22.378Z,24.26
2022-11-24T12:54:35.378Z,24.27
2022-11-24T12:55:37.560Z,24.27
2022-11-24T12:56:50.415Z,24.3
2022-11-24T12:59:19.442Z,24.3
2022-11-24T13:00:21.569Z,24.32
2022-11-24T13:01:34.547Z,24.36
2022-11-24T13:02:36.907Z,24.37
2022-11-24T13:03:49.900Z,24.4
2022-11-24T13:05:01.834Z,24.41
2022-11-24T13:06:04.898Z,24.44
2022-11-24T13:07:16.939Z,24.44
2022-11-24T13:08:29.896Z,24.47
2022-11-24T13:09:32.013Z,24.49
2022-11-24T13:10:56.365Z,24.51
2022-11-24T13:12:03.501Z,24.53
2022-11-24T13:13:06.912Z,24.54
2022-11-24T13:14:18.881Z,24.58
2022-11-24T13:15:44.665Z,24.64
2022-11-24T13:16:48.544Z,24.63
2022-11-24T13:18:06.842Z,24.67
2022-11-24T13:18:54.544Z,24.71
2022-11-24T13:20:06.583Z,24.75
2022-11-24T13:21:09.403Z,24.77
2022-11-24T13:22:21.347Z,24.78
2022-11-24T13:23:34.766Z,24.84
2022-11-24T13:24:46.670Z,24.83
2022-11-24T13:25:49.916Z,24.85
2022-11-24T13:27:01.857Z,24.87
2022-11-24T13:28:17.502Z,24.9
2022-11-24T13:29:25.295Z,24.91
2022-11-24T13:30:28.429Z,24.9
2022-11-24T13:31:59.943Z,24.92
2022-11-24T13:32:52.927Z,24.94
2022-11-24T13:33:54.963Z,24.95
2022-11-24T13:35:07.914Z,24.97
2022-11-24T13:36:19.804Z,25.05
2022-11-24T13:37:35.729Z,25.04
2022-11-24T13:38:38.041Z,24.97
2022-11-24T13:39:50.945Z,24.98
2022-11-24T13:41:13.506Z,24.95
2022-11-24T13:42:41.835Z,24.98
2022-11-24T13:43:16.756Z,24.95
2022-11-24T13:44:28.619Z,24.94
2022-11-24T13:45:31.945Z,24.97
2022-11-24T13:46:43.991Z,24.95
2022-11-24T13:47:56.915Z,24.94
2022-11-24T13:49:08.834Z,24.87
2022-11-24T13:50:11.932Z,24.85
2022-11-24T13:51:23.980Z,24.85
2022-11-24T13:52:36.937Z,24.83
2022-11-24T13:53:39.018Z,24.81
2022-11-24T13:54:51.928Z,24.8
2022-11-24T13:56:03.834Z,24.78
2022-11-24T13:57:16.480Z,24.75
2022-11-24T13:58:18.543Z,24.72
2022-11-24T13:59:31.406Z,24.74
2022-11-24T14:00:43.311Z,24.75
2022-11-24T14:01:55.973Z,24.8
2022-11-24T14:02:58.209Z,24.83
2022-11-24T14:04:31.579Z,24.84
2022-11-24T14:05:24.781Z,24.87
2022-11-24T14:07:53.362Z,24.91
2022-11-24T14:08:45.695Z,24.95
2022-11-24T14:10:01.789Z,24.95
2022-11-24T14:11:13.687Z,25.01
2022-11-24T14:12:16.937Z,25.0
2022-11-24T14:13:28.935Z,25.0
2022-11-24T14:14:41.791Z,25.01
2022-11-24T14:15:43.857Z,25.05
2022-11-24T14:16:56.802Z,25.05
2022-11-24T14:18:08.685Z,25.09
2022-11-24T14:19:21.245Z,25.08
2022-11-24T14:20:23.375Z,25.11
2022-11-24T14:21:36.381Z,25.11
2022-11-24T14:22:48.270Z,25.12
2022-11-24T14:24:01.258Z,25.15
2022-11-24T14:25:03.338Z,25.15
2022-11-24T14:26:16.763Z,25.14
2022-11-24T14:27:28.693Z,25.15
2022-11-24T14:28:31.823Z,25.15
2022-11-24T14:29:43.790Z,25.14
2022-11-24T14:30:56.273Z,25.14
2022-11-24T14:32:08.437Z,25.15
2022-11-24T14:33:11.281Z,25.12
2022-11-24T14:34:23.266Z,25.09
2022-11-24T14:35:35.832Z,25.11
2022-11-24T14:36:38.160Z,25.09
2022-11-24T14:37:50.776Z,25.05
2022-11-24T14:39:02.615Z,25.0
2022-11-24T14:40:16.777Z,24.9
2022-11-24T14:41:18.904Z,24.8
2022-11-24T14:42:31.750Z,24.71
2022-11-24T14:43:43.716Z,24.63
2022-11-24T14:44:46.753Z,24.56
2022-11-24T14:45:58.738Z,24.49
2022-11-24T14:47:11.779Z,24.39
2022-11-24T14:48:23.767Z,24.33
2022-11-24T14:49:26.793Z,24.3
2022-11-24T14:50:38.779Z,24.23
2022-11-24T14:51:51.805Z,24.19
2022-11-24T14:52:53.939Z,24.13
2022-11-24T14:54:06.808Z,24.1
2022-11-24T14:55:23.164Z,24.06
2022-11-24T14:56:26.258Z,24.0
2022-11-24T14:57:38.293Z,23.95
2022-11-24T14:58:51.319Z,23.95
2022-11-24T14:59:53.486Z,23.92
2022-11-24T15:01:06.352Z,23.86
2022-11-24T15:02:18.511Z,23.85
2022-11-24T15:03:31.309Z,23.85
2022-11-24T15:05:02.565Z,23.81
2022-11-24T15:05:46.775Z,23.81
2022-11-24T15:06:58.908Z,23.78
2022-11-24T15:08:01.812Z,23.75
2022-11-24T15:09:13.866Z,23.71
2022-11-24T15:10:32.168Z,23.71
2022-11-24T15:11:35.902Z,23.68
2022-11-24T15:12:49.304Z,23.68